sensor_id;sensor_type;location;lat;lon;timestamp;temperature;humidity
51557;DHT22;38766;53.194;5.532;2023-11-21T00:00:13;10.60;99.90
51557;DHT22;38766;53.194;5.532;2023-11-21T00:02:39;10.60;99.90
51557;DHT22;38766;53.194;5.532;2023-11-21T00:05:10;10.70;99.90
51557;DHT22;38766;53.194;5.532;2023-11-21T00:07:38;10.70;99.90
51557;DHT22;38766;53.194;5.532;2023-11-21T00:10:04;10.70;99.90
51557;DHT22;38766;53.194;5.532;2023-11-21T00:12:37;10.70;99.90
51557;DHT22;38766;53.194;5.532;2023-11-21T00:15:03;10.60;99.90
51557;DHT22;38766;53.194;5.532;2023-11-21T00:17:31;10.70;99.90
51557;DHT22;38766;53.194;5.532;2023-11-21T00:19:56;10.70;99.90
51557;DHT22;38766;53.194;5.532;2023-11-21T00:22:22;10.70;99.90
51557;DHT22;38766;53.194;5.532;2023-11-21T00:24:48;10.70;99.90
51557;DHT22;38766;53.194;5.532;2023-11-21T00:27:13;10.70;99.90
51557;DHT22;38766;53.194;5.532;2023-11-21T00:29:40;10.70;99.90
51557;DHT22;38766;53.194;5.532;2023-11-21T00:32:06;10.70;99.90
51557;DHT22;38766;53.194;5.532;2023-11-21T00:34:32;10.60;99.90
51557;DHT22;38766;53.194;5.532;2023-11-21T00:36:58;10.70;99.90
51557;DHT22;38766;53.194;5.532;2023-11-21T00:39:24;10.70;99.90
51557;DHT22;38766;53.194;5.532;2023-11-21T00:41:50;10.60;99.90
51557;DHT22;38766;53.194;5.532;2023-11-21T00:44:16;10.60;99.90
51557;DHT22;38766;53.194;5.532;2023-11-21T00:46:42;10.60;99.90
51557;DHT22;38766;53.194;5.532;2023-11-21T00:49:07;10.70;99.90
51557;DHT22;38766;53.194;5.532;2023-11-21T00:51:33;10.70;99.90
51557;DHT22;38766;53.194;5.532;2023-11-21T00:53:59;10.70;99.90
51557;DHT22;38766;53.194;5.532;2023-11-21T00:56:25;10.70;99.90
51557;DHT22;38766;53.194;5.532;2023-11-21T00:58:50;10.70;99.90
51557;DHT22;38766;53.194;5.532;2023-11-21T01:01:18;10.70;99.90
51557;DHT22;38766;53.194;5.532;2023-11-21T01:03:47;10.70;99.90
51557;DHT22;38766;53.194;5.532;2023-11-21T01:06:13;10.70;99.90
51557;DHT22;38766;53.194;5.532;2023-11-21T01:08:39;10.80;99.90
51557;DHT22;38766;53.194;5.532;2023-11-21T01:11:05;10.70;99.90
51557;DHT22;38766;53.194;5.532;2023-11-21T01:13:33;10.70;99.90
51557;DHT22;38766;53.194;5.532;2023-11-21T01:15:59;10.70;99.90
51557;DHT22;38766;53.194;5.532;2023-11-21T01:18:24;10.80;99.90
51557;DHT22;38766;53.194;5.532;2023-11-21T01:20:54;10.70;99.90
51557;DHT22;38766;53.194;5.532;2023-11-21T01:23:20;10.80;99.90
51557;DHT22;38766;53.194;5.532;2023-11-21T01:25:45;10.90;99.90
51557;DHT22;38766;53.194;5.532;2023-11-21T01:28:11;10.80;99.90
51557;DHT22;38766;53.194;5.532;2023-11-21T01:30:37;10.80;99.90
51557;DHT22;38766;53.194;5.532;2023-11-21T01:33:03;10.80;99.90
51557;DHT22;38766;53.194;5.532;2023-11-21T01:35:29;10.80;99.90
51557;DHT22;38766;53.194;5.532;2023-11-21T01:37:54;10.80;99.90
51557;DHT22;38766;53.194;5.532;2023-11-21T01:40:20;10.80;99.90
51557;DHT22;38766;53.194;5.532;2023-11-21T01:42:46;10.80;99.90
51557;DHT22;38766;53.194;5.532;2023-11-21T01:45:14;10.80;99.90
51557;DHT22;38766;53.194;5.532;2023-11-21T01:47:41;10.80;99.90
51557;DHT22;38766;53.194;5.532;2023-11-21T01:50:08;10.80;99.90
51557;DHT22;38766;53.194;5.532;2023-11-21T01:52:35;10.80;99.90
51557;DHT22;38766;53.194;5.532;2023-11-21T01:55:01;10.90;99.90
51557;DHT22;38766;53.194;5.532;2023-11-21T01:57:28;10.90;99.90
51557;DHT22;38766;53.194;5.532;2023-11-21T01:59:54;10.80;99.90
51557;DHT22;38766;53.194;5.532;2023-11-21T02:02:20;10.80;99.90
51557;DHT22;38766;53.194;5.532;2023-11-21T02:04:46;10.80;99.90
51557;DHT22;38766;53.194;5.532;2023-11-21T02:07:11;10.80;99.90
51557;DHT22;38766;53.194;5.532;2023-11-21T02:09:37;10.80;99.90
51557;DHT22;38766;53.194;5.532;2023-11-21T02:12:04;10.70;99.90
51557;DHT22;38766;53.194;5.532;2023-11-21T02:14:30;10.70;99.90
51557;DHT22;38766;53.194;5.532;2023-11-21T02:16:56;10.70;99.90
51557;DHT22;38766;53.194;5.532;2023-11-21T02:19:23;10.70;99.90
51557;DHT22;38766;53.194;5.532;2023-11-21T02:21:52;10.70;99.90
51557;DHT22;38766;53.194;5.532;2023-11-21T02:24:21;10.70;99.90
51557;DHT22;38766;53.194;5.532;2023-11-21T02:26:48;10.60;99.90
51557;DHT22;38766;53.194;5.532;2023-11-21T02:29:20;10.70;99.90
51557;DHT22;38766;53.194;5.532;2023-11-21T02:31:54;10.70;99.90
51557;DHT22;38766;53.194;5.532;2023-11-21T02:34:20;10.70;99.90
51557;DHT22;38766;53.194;5.532;2023-11-21T02:36:46;10.60;99.90
51557;DHT22;38766;53.194;5.532;2023-11-21T02:39:15;10.60;99.90
51557;DHT22;38766;53.194;5.532;2023-11-21T02:41:42;10.50;99.90
51557;DHT22;38766;53.194;5.532;2023-11-21T02:44:08;10.60;99.90
51557;DHT22;38766;53.194;5.532;2023-11-21T02:46:34;10.50;99.90
51557;DHT22;38766;53.194;5.532;2023-11-21T02:49:01;10.50;99.90
51557;DHT22;38766;53.194;5.532;2023-11-21T02:51:27;10.50;99.90
51557;DHT22;38766;53.194;5.532;2023-11-21T02:53:53;10.50;99.90
51557;DHT22;38766;53.194;5.532;2023-11-21T02:56:19;10.50;99.90
51557;DHT22;38766;53.194;5.532;2023-11-21T02:58:45;10.50;99.90
51557;DHT22;38766;53.194;5.532;2023-11-21T03:01:10;10.50;99.90
51557;DHT22;38766;53.194;5.532;2023-11-21T03:03:37;10.50;99.90
51557;DHT22;38766;53.194;5.532;2023-11-21T03:06:06;10.50;99.90
51557;DHT22;38766;53.194;5.532;2023-11-21T03:08:32;10.50;99.90
51557;DHT22;38766;53.194;5.532;2023-11-21T03:10:58;10.50;99.90
51557;DHT22;38766;53.194;5.532;2023-11-21T03:13:23;10.50;99.90
51557;DHT22;38766;53.194;5.532;2023-11-21T03:15:49;10.50;99.90
51557;DHT22;38766;53.194;5.532;2023-11-21T03:18:15;10.50;99.90
51557;DHT22;38766;53.194;5.532;2023-11-21T03:20:41;10.50;99.90
51557;DHT22;38766;53.194;5.532;2023-11-21T03:23:07;10.50;99.90
51557;DHT22;38766;53.194;5.532;2023-11-21T03:25:32;10.50;99.90
51557;DHT22;38766;53.194;5.532;2023-11-21T03:27:58;10.50;99.90
51557;DHT22;38766;53.194;5.532;2023-11-21T03:30:24;10.60;99.90
51557;DHT22;38766;53.194;5.532;2023-11-21T03:32:50;10.60;99.90
51557;DHT22;38766;53.194;5.532;2023-11-21T03:35:16;10.60;99.90
51557;DHT22;38766;53.194;5.532;2023-11-21T03:37:42;10.60;99.90
51557;DHT22;38766;53.194;5.532;2023-11-21T03:40:09;10.60;99.90
51557;DHT22;38766;53.194;5.532;2023-11-21T03:42:35;10.60;99.90
51557;DHT22;38766;53.194;5.532;2023-11-21T03:45:01;10.70;99.90
51557;DHT22;38766;53.194;5.532;2023-11-21T03:47:28;10.60;99.90
51557;DHT22;38766;53.194;5.532;2023-11-21T03:49:53;10.60;99.90
51557;DHT22;38766;53.194;5.532;2023-11-21T03:52:19;10.60;99.90
51557;DHT22;38766;53.194;5.532;2023-11-21T03:54:44;10.60;99.90
51557;DHT22;38766;53.194;5.532;2023-11-21T03:57:11;10.60;99.90
51557;DHT22;38766;53.194;5.532;2023-11-21T03:59:40;10.60;99.90
51557;DHT22;38766;53.194;5.532;2023-11-21T04:02:06;10.60;99.90
51557;DHT22;38766;53.194;5.532;2023-11-21T04:04:33;10.60;99.90
51557;DHT22;38766;53.194;5.532;2023-11-21T04:06:59;10.60;99.90
51557;DHT22;38766;53.194;5.532;2023-11-21T04:09:25;10.50;99.90
51557;DHT22;38766;53.194;5.532;2023-11-21T04:11:51;10.50;99.90
51557;DHT22;38766;53.194;5.532;2023-11-21T04:14:17;10.50;99.90
51557;DHT22;38766;53.194;5.532;2023-11-21T04:16:43;10.40;99.90
51557;DHT22;38766;53.194;5.532;2023-11-21T04:19:08;10.50;99.90
51557;DHT22;38766;53.194;5.532;2023-11-21T04:21:40;10.40;99.90
51557;DHT22;38766;53.194;5.532;2023-11-21T04:24:06;10.40;99.90
51557;DHT22;38766;53.194;5.532;2023-11-21T04:26:32;10.40;99.90
51557;DHT22;38766;53.194;5.532;2023-11-21T04:28:58;10.40;99.90
51557;DHT22;38766;53.194;5.532;2023-11-21T04:31:23;10.40;99.90
51557;DHT22;38766;53.194;5.532;2023-11-21T04:33:49;10.40;99.90
51557;DHT22;38766;53.194;5.532;2023-11-21T04:36:15;10.40;99.90
51557;DHT22;38766;53.194;5.532;2023-11-21T04:38:40;10.40;99.90
51557;DHT22;38766;53.194;5.532;2023-11-21T04:41:07;10.40;99.90
51557;DHT22;38766;53.194;5.532;2023-11-21T04:43:32;10.40;99.90
51557;DHT22;38766;53.194;5.532;2023-11-21T04:45:58;10.40;99.90
51557;DHT22;38766;53.194;5.532;2023-11-21T04:48:24;10.40;99.90
51557;DHT22;38766;53.194;5.532;2023-11-21T04:50:50;10.40;99.90
51557;DHT22;38766;53.194;5.532;2023-11-21T04:53:17;10.40;99.90
51557;DHT22;38766;53.194;5.532;2023-11-21T04:55:43;10.40;99.90
51557;DHT22;38766;53.194;5.532;2023-11-21T04:58:09;10.40;99.90
51557;DHT22;38766;53.194;5.532;2023-11-21T05:00:35;10.40;99.90
51557;DHT22;38766;53.194;5.532;2023-11-21T05:03:02;10.40;99.90
51557;DHT22;38766;53.194;5.532;2023-11-21T05:05:29;10.40;99.90
51557;DHT22;38766;53.194;5.532;2023-11-21T05:07:55;10.30;99.90
51557;DHT22;38766;53.194;5.532;2023-11-21T05:10:21;10.40;99.90
51557;DHT22;38766;53.194;5.532;2023-11-21T05:12:48;10.30;99.90
51557;DHT22;38766;53.194;5.532;2023-11-21T05:15:16;10.30;99.90
51557;DHT22;38766;53.194;5.532;2023-11-21T05:17:43;10.30;99.90
51557;DHT22;38766;53.194;5.532;2023-11-21T05:20:14;10.30;99.90
51557;DHT22;38766;53.194;5.532;2023-11-21T05:22:43;10.30;99.90
51557;DHT22;38766;53.194;5.532;2023-11-21T05:25:09;10.30;99.90
51557;DHT22;38766;53.194;5.532;2023-11-21T05:27:35;10.30;99.90
51557;DHT22;38766;53.194;5.532;2023-11-21T05:30:05;10.30;99.90
51557;DHT22;38766;53.194;5.532;2023-11-21T05:32:31;10.20;99.90
51557;DHT22;38766;53.194;5.532;2023-11-21T05:34:57;10.20;99.90
51557;DHT22;38766;53.194;5.532;2023-11-21T05:37:23;10.20;99.90
51557;DHT22;38766;53.194;5.532;2023-11-21T05:39:49;10.20;99.90
51557;DHT22;38766;53.194;5.532;2023-11-21T05:42:15;10.10;99.90
51557;DHT22;38766;53.194;5.532;2023-11-21T05:44:42;10.10;99.90
51557;DHT22;38766;53.194;5.532;2023-11-21T05:47:12;10.10;99.90
51557;DHT22;38766;53.194;5.532;2023-11-21T05:49:39;10.10;99.90
51557;DHT22;38766;53.194;5.532;2023-11-21T05:52:05;10.10;99.90
51557;DHT22;38766;53.194;5.532;2023-11-21T05:54:31;10.00;99.90
51557;DHT22;38766;53.194;5.532;2023-11-21T05:56:56;10.00;99.90
51557;DHT22;38766;53.194;5.532;2023-11-21T05:59:23;10.00;99.90
51557;DHT22;38766;53.194;5.532;2023-11-21T06:01:48;10.00;99.90
51557;DHT22;38766;53.194;5.532;2023-11-21T06:04:14;10.00;99.90
51557;DHT22;38766;53.194;5.532;2023-11-21T06:06:40;10.00;99.90
51557;DHT22;38766;53.194;5.532;2023-11-21T06:09:05;10.00;99.90
51557;DHT22;38766;53.194;5.532;2023-11-21T06:11:34;10.00;99.90
51557;DHT22;38766;53.194;5.532;2023-11-21T06:14:00;10.00;99.90
51557;DHT22;38766;53.194;5.532;2023-11-21T06:16:25;9.90;99.90
51557;DHT22;38766;53.194;5.532;2023-11-21T06:18:51;9.90;99.90
51557;DHT22;38766;53.194;5.532;2023-11-21T06:21:17;9.90;99.90
51557;DHT22;38766;53.194;5.532;2023-11-21T06:23:43;9.90;99.90
51557;DHT22;38766;53.194;5.532;2023-11-21T06:26:09;9.90;99.90
51557;DHT22;38766;53.194;5.532;2023-11-21T06:28:35;9.90;99.90
51557;DHT22;38766;53.194;5.532;2023-11-21T06:31:04;9.80;99.90
51557;DHT22;38766;53.194;5.532;2023-11-21T06:33:31;9.90;99.90
51557;DHT22;38766;53.194;5.532;2023-11-21T06:35:57;9.90;99.90
51557;DHT22;38766;53.194;5.532;2023-11-21T06:38:23;9.90;99.90
51557;DHT22;38766;53.194;5.532;2023-11-21T06:40:48;9.90;99.90
51557;DHT22;38766;53.194;5.532;2023-11-21T06:43:14;9.90;99.90
51557;DHT22;38766;53.194;5.532;2023-11-21T06:45:40;9.90;99.90
51557;DHT22;38766;53.194;5.532;2023-11-21T06:48:06;9.80;99.90
51557;DHT22;38766;53.194;5.532;2023-11-21T06:50:32;9.80;99.90
51557;DHT22;38766;53.194;5.532;2023-11-21T06:52:57;9.80;99.90
51557;DHT22;38766;53.194;5.532;2023-11-21T06:55:23;9.80;99.90
51557;DHT22;38766;53.194;5.532;2023-11-21T06:57:49;9.80;99.90
51557;DHT22;38766;53.194;5.532;2023-11-21T07:00:16;9.70;99.90
51557;DHT22;38766;53.194;5.532;2023-11-21T07:02:43;9.80;99.90
51557;DHT22;38766;53.194;5.532;2023-11-21T07:05:09;9.80;99.90
51557;DHT22;38766;53.194;5.532;2023-11-21T07:07:35;9.70;99.90
51557;DHT22;38766;53.194;5.532;2023-11-21T07:10:01;9.70;99.90
51557;DHT22;38766;53.194;5.532;2023-11-21T07:12:31;9.70;99.90
51557;DHT22;38766;53.194;5.532;2023-11-21T07:14:57;9.70;99.90
51557;DHT22;38766;53.194;5.532;2023-11-21T07:17:23;9.70;99.90
51557;DHT22;38766;53.194;5.532;2023-11-21T07:19:49;9.70;99.90
51557;DHT22;38766;53.194;5.532;2023-11-21T07:22:15;9.70;99.90
51557;DHT22;38766;53.194;5.532;2023-11-21T07:24:48;9.70;99.90
51557;DHT22;38766;53.194;5.532;2023-11-21T07:27:16;9.70;99.90
51557;DHT22;38766;53.194;5.532;2023-11-21T07:29:42;9.70;99.90
51557;DHT22;38766;53.194;5.532;2023-11-21T07:32:08;9.60;99.90
51557;DHT22;38766;53.194;5.532;2023-11-21T07:34:35;9.70;99.90
51557;DHT22;38766;53.194;5.532;2023-11-21T07:37:01;9.70;99.90
51557;DHT22;38766;53.194;5.532;2023-11-21T07:39:28;9.70;99.90
51557;DHT22;38766;53.194;5.532;2023-11-21T07:41:54;9.70;99.90
51557;DHT22;38766;53.194;5.532;2023-11-21T07:44:19;9.70;99.90
51557;DHT22;38766;53.194;5.532;2023-11-21T07:46:45;9.60;99.90
51557;DHT22;38766;53.194;5.532;2023-11-21T07:49:12;9.70;99.90
51557;DHT22;38766;53.194;5.532;2023-11-21T07:51:41;9.70;99.90
51557;DHT22;38766;53.194;5.532;2023-11-21T07:54:07;9.60;99.90
51557;DHT22;38766;53.194;5.532;2023-11-21T07:56:33;9.60;99.90
51557;DHT22;38766;53.194;5.532;2023-11-21T07:58:58;9.60;99.90
51557;DHT22;38766;53.194;5.532;2023-11-21T08:01:24;9.50;99.90
51557;DHT22;38766;53.194;5.532;2023-11-21T08:03:50;9.60;99.90
51557;DHT22;38766;53.194;5.532;2023-11-21T08:06:18;9.60;99.90
51557;DHT22;38766;53.194;5.532;2023-11-21T08:08:43;9.50;99.90
51557;DHT22;38766;53.194;5.532;2023-11-21T08:11:09;9.50;99.90
51557;DHT22;38766;53.194;5.532;2023-11-21T08:13:36;9.50;99.90
51557;DHT22;38766;53.194;5.532;2023-11-21T08:16:01;9.50;99.90
51557;DHT22;38766;53.194;5.532;2023-11-21T08:18:29;9.50;99.90
51557;DHT22;38766;53.194;5.532;2023-11-21T08:20:56;9.50;99.90
51557;DHT22;38766;53.194;5.532;2023-11-21T08:23:22;9.50;99.90
51557;DHT22;38766;53.194;5.532;2023-11-21T08:25:51;9.50;99.90
51557;DHT22;38766;53.194;5.532;2023-11-21T08:28:18;9.60;99.90
51557;DHT22;38766;53.194;5.532;2023-11-21T08:30:44;9.60;99.90
51557;DHT22;38766;53.194;5.532;2023-11-21T08:33:09;9.60;99.90
51557;DHT22;38766;53.194;5.532;2023-11-21T08:35:37;9.60;99.90
51557;DHT22;38766;53.194;5.532;2023-11-21T08:38:03;9.60;99.90
51557;DHT22;38766;53.194;5.532;2023-11-21T08:40:28;9.60;99.90
51557;DHT22;38766;53.194;5.532;2023-11-21T08:42:54;9.70;99.90
51557;DHT22;38766;53.194;5.532;2023-11-21T08:45:21;9.70;99.90
51557;DHT22;38766;53.194;5.532;2023-11-21T08:47:47;9.70;99.90
51557;DHT22;38766;53.194;5.532;2023-11-21T08:50:14;9.80;99.90
51557;DHT22;38766;53.194;5.532;2023-11-21T08:52:41;9.80;99.90
51557;DHT22;38766;53.194;5.532;2023-11-21T08:55:08;9.80;99.90
51557;DHT22;38766;53.194;5.532;2023-11-21T08:57:37;9.80;99.90
51557;DHT22;38766;53.194;5.532;2023-11-21T09:00:04;9.80;99.90
51557;DHT22;38766;53.194;5.532;2023-11-21T09:02:33;9.80;99.90
51557;DHT22;38766;53.194;5.532;2023-11-21T09:05:04;9.80;99.90
51557;DHT22;38766;53.194;5.532;2023-11-21T09:07:29;9.80;99.90
51557;DHT22;38766;53.194;5.532;2023-11-21T09:09:56;9.90;99.90
51557;DHT22;38766;53.194;5.532;2023-11-21T09:12:22;9.90;99.90
51557;DHT22;38766;53.194;5.532;2023-11-21T09:14:47;9.90;99.90
51557;DHT22;38766;53.194;5.532;2023-11-21T09:17:13;9.90;99.90
51557;DHT22;38766;53.194;5.532;2023-11-21T09:19:43;9.90;99.90
51557;DHT22;38766;53.194;5.532;2023-11-21T09:22:18;9.90;99.90
51557;DHT22;38766;53.194;5.532;2023-11-21T09:24:44;9.90;99.90
51557;DHT22;38766;53.194;5.532;2023-11-21T09:27:10;9.90;99.90
51557;DHT22;38766;53.194;5.532;2023-11-21T09:29:36;9.90;99.90
51557;DHT22;38766;53.194;5.532;2023-11-21T09:32:06;10.00;99.90
51557;DHT22;38766;53.194;5.532;2023-11-21T09:34:34;10.00;99.90
51557;DHT22;38766;53.194;5.532;2023-11-21T09:37:06;9.90;99.90
51557;DHT22;38766;53.194;5.532;2023-11-21T09:39:32;9.90;99.90
51557;DHT22;38766;53.194;5.532;2023-11-21T09:42:10;9.90;99.90
51557;DHT22;38766;53.194;5.532;2023-11-21T09:45:15;9.80;99.90
51557;DHT22;38766;53.194;5.532;2023-11-21T09:47:43;9.80;99.90
51557;DHT22;38766;53.194;5.532;2023-11-21T09:50:09;9.80;99.90
51557;DHT22;38766;53.194;5.532;2023-11-21T09:52:48;9.80;99.90
51557;DHT22;38766;53.194;5.532;2023-11-21T09:55:16;9.70;99.90
51557;DHT22;38766;53.194;5.532;2023-11-21T09:57:45;9.80;99.90
51557;DHT22;38766;53.194;5.532;2023-11-21T10:00:11;9.80;99.90
51557;DHT22;38766;53.194;5.532;2023-11-21T10:02:38;9.80;99.90
51557;DHT22;38766;53.194;5.532;2023-11-21T10:05:06;9.80;99.90
51557;DHT22;38766;53.194;5.532;2023-11-21T10:07:34;9.80;99.90
51557;DHT22;38766;53.194;5.532;2023-11-21T10:10:01;9.80;99.90
51557;DHT22;38766;53.194;5.532;2023-11-21T10:12:28;9.80;99.90
51557;DHT22;38766;53.194;5.532;2023-11-21T10:14:57;9.80;99.90
51557;DHT22;38766;53.194;5.532;2023-11-21T10:17:24;9.80;99.90
51557;DHT22;38766;53.194;5.532;2023-11-21T10:19:52;9.80;99.90
51557;DHT22;38766;53.194;5.532;2023-11-21T10:22:20;9.80;99.90
51557;DHT22;38766;53.194;5.532;2023-11-21T10:24:46;9.90;99.90
51557;DHT22;38766;53.194;5.532;2023-11-21T10:27:12;9.80;99.90
51557;DHT22;38766;53.194;5.532;2023-11-21T10:29:39;9.90;99.90
51557;DHT22;38766;53.194;5.532;2023-11-21T10:32:05;9.80;99.90
51557;DHT22;38766;53.194;5.532;2023-11-21T10:34:31;9.80;99.90
51557;DHT22;38766;53.194;5.532;2023-11-21T10:36:57;9.80;99.90
51557;DHT22;38766;53.194;5.532;2023-11-21T10:39:24;9.80;99.90
51557;DHT22;38766;53.194;5.532;2023-11-21T10:41:53;9.80;99.90
51557;DHT22;38766;53.194;5.532;2023-11-21T10:44:20;9.80;99.90
51557;DHT22;38766;53.194;5.532;2023-11-21T10:46:55;9.80;99.90
51557;DHT22;38766;53.194;5.532;2023-11-21T10:49:22;9.80;99.90
51557;DHT22;38766;53.194;5.532;2023-11-21T10:51:51;9.80;99.90
51557;DHT22;38766;53.194;5.532;2023-11-21T10:54:25;9.90;99.90
51557;DHT22;38766;53.194;5.532;2023-11-21T10:56:58;10.00;99.90
51557;DHT22;38766;53.194;5.532;2023-11-21T10:59:29;10.20;99.90
51557;DHT22;38766;53.194;5.532;2023-11-21T11:01:57;10.40;99.90
51557;DHT22;38766;53.194;5.532;2023-11-21T11:04:25;10.60;99.90
51557;DHT22;38766;53.194;5.532;2023-11-21T11:06:57;10.80;99.90
51557;DHT22;38766;53.194;5.532;2023-11-21T11:09:25;10.90;99.90
51557;DHT22;38766;53.194;5.532;2023-11-21T11:11:51;11.10;99.90
51557;DHT22;38766;53.194;5.532;2023-11-21T11:14:19;11.10;99.90
51557;DHT22;38766;53.194;5.532;2023-11-21T11:16:45;11.00;99.90
51557;DHT22;38766;53.194;5.532;2023-11-21T11:19:11;10.90;99.90
51557;DHT22;38766;53.194;5.532;2023-11-21T11:24:50;10.90;99.90
51557;DHT22;38766;53.194;5.532;2023-11-21T11:27:32;11.10;99.90
51557;DHT22;38766;53.194;5.532;2023-11-21T11:30:19;11.30;99.90
51557;DHT22;38766;53.194;5.532;2023-11-21T11:38:32;11.30;99.90
51557;DHT22;38766;53.194;5.532;2023-11-21T11:41:05;11.10;99.90
51557;DHT22;38766;53.194;5.532;2023-11-21T11:43:31;11.10;99.90
51557;DHT22;38766;53.194;5.532;2023-11-21T11:46:03;11.00;99.90
51557;DHT22;38766;53.194;5.532;2023-11-21T11:48:29;11.00;99.90
51557;DHT22;38766;53.194;5.532;2023-11-21T11:51:11;11.00;99.90
51557;DHT22;38766;53.194;5.532;2023-11-21T11:53:41;11.10;99.90
51557;DHT22;38766;53.194;5.532;2023-11-21T11:56:23;11.20;99.90
51557;DHT22;38766;53.194;5.532;2023-11-21T11:58:55;11.20;99.90
51557;DHT22;38766;53.194;5.532;2023-11-21T12:01:21;11.20;99.90
51557;DHT22;38766;53.194;5.532;2023-11-21T12:06:50;11.30;99.90
51557;DHT22;38766;53.194;5.532;2023-11-21T12:09:21;11.40;99.90
51557;DHT22;38766;53.194;5.532;2023-11-21T12:11:50;11.40;99.90
51557;DHT22;38766;53.194;5.532;2023-11-21T12:14:17;11.30;99.90
51557;DHT22;38766;53.194;5.532;2023-11-21T12:16:43;11.30;99.90
51557;DHT22;38766;53.194;5.532;2023-11-21T12:19:12;11.30;99.90
51557;DHT22;38766;53.194;5.532;2023-11-21T12:21:38;11.30;99.90
51557;DHT22;38766;53.194;5.532;2023-11-21T12:24:07;11.30;99.90
51557;DHT22;38766;53.194;5.532;2023-11-21T12:26:39;11.30;99.90
51557;DHT22;38766;53.194;5.532;2023-11-21T12:29:05;11.30;99.90
51557;DHT22;38766;53.194;5.532;2023-11-21T12:31:33;11.40;99.90
51557;DHT22;38766;53.194;5.532;2023-11-21T12:34:00;11.30;99.90
51557;DHT22;38766;53.194;5.532;2023-11-21T12:36:26;11.40;99.90
51557;DHT22;38766;53.194;5.532;2023-11-21T12:38:51;11.40;99.90
51557;DHT22;38766;53.194;5.532;2023-11-21T12:41:17;11.40;99.90
51557;DHT22;38766;53.194;5.532;2023-11-21T12:43:43;11.40;99.90
51557;DHT22;38766;53.194;5.532;2023-11-21T12:46:10;11.30;99.90
51557;DHT22;38766;53.194;5.532;2023-11-21T12:48:44;11.20;99.90
51557;DHT22;38766;53.194;5.532;2023-11-21T12:51:11;11.10;99.90
51557;DHT22;38766;53.194;5.532;2023-11-21T12:53:41;10.90;99.90
51557;DHT22;38766;53.194;5.532;2023-11-21T12:56:10;10.80;99.90
51557;DHT22;38766;53.194;5.532;2023-11-21T12:58:40;10.80;99.90
51557;DHT22;38766;53.194;5.532;2023-11-21T13:01:10;10.70;99.90
51557;DHT22;38766;53.194;5.532;2023-11-21T13:03:38;10.70;99.90
51557;DHT22;38766;53.194;5.532;2023-11-21T13:06:06;10.70;99.90
51557;DHT22;38766;53.194;5.532;2023-11-21T13:08:33;10.70;99.90
51557;DHT22;38766;53.194;5.532;2023-11-21T13:10:59;10.70;99.90
51557;DHT22;38766;53.194;5.532;2023-11-21T13:13:28;10.70;99.90
51557;DHT22;38766;53.194;5.532;2023-11-21T13:15:55;10.70;99.90
51557;DHT22;38766;53.194;5.532;2023-11-21T13:18:25;10.60;99.90
51557;DHT22;38766;53.194;5.532;2023-11-21T13:20:53;10.60;99.90
51557;DHT22;38766;53.194;5.532;2023-11-21T13:23:23;10.60;99.90
51557;DHT22;38766;53.194;5.532;2023-11-21T13:25:49;10.60;99.90
51557;DHT22;38766;53.194;5.532;2023-11-21T13:28:16;10.60;99.90
51557;DHT22;38766;53.194;5.532;2023-11-21T13:30:43;10.60;99.90
51557;DHT22;38766;53.194;5.532;2023-11-21T13:33:10;10.60;99.90
51557;DHT22;38766;53.194;5.532;2023-11-21T13:35:39;10.50;99.90
51557;DHT22;38766;53.194;5.532;2023-11-21T13:38:13;10.40;99.90
51557;DHT22;38766;53.194;5.532;2023-11-21T13:40:40;10.40;99.90
51557;DHT22;38766;53.194;5.532;2023-11-21T13:43:10;10.40;99.90
51557;DHT22;38766;53.194;5.532;2023-11-21T13:45:40;10.40;99.90
51557;DHT22;38766;53.194;5.532;2023-11-21T13:48:06;10.40;99.90
51557;DHT22;38766;53.194;5.532;2023-11-21T13:50:41;10.30;99.90
51557;DHT22;38766;53.194;5.532;2023-11-21T13:53:34;10.30;99.90
51557;DHT22;38766;53.194;5.532;2023-11-21T13:56:03;10.20;99.90
51557;DHT22;38766;53.194;5.532;2023-11-21T13:58:29;10.20;99.90
51557;DHT22;38766;53.194;5.532;2023-11-21T14:01:12;10.20;99.90
51557;DHT22;38766;53.194;5.532;2023-11-21T14:04:03;10.20;99.90
51557;DHT22;38766;53.194;5.532;2023-11-21T14:06:43;10.10;99.90
51557;DHT22;38766;53.194;5.532;2023-11-21T14:09:15;10.00;99.90
51557;DHT22;38766;53.194;5.532;2023-11-21T14:11:51;10.00;99.90
51557;DHT22;38766;53.194;5.532;2023-11-21T14:14:19;9.90;99.90
51557;DHT22;38766;53.194;5.532;2023-11-21T14:16:45;9.80;99.90
51557;DHT22;38766;53.194;5.532;2023-11-21T14:19:11;9.70;99.90
51557;DHT22;38766;53.194;5.532;2023-11-21T14:21:46;9.70;99.90
51557;DHT22;38766;53.194;5.532;2023-11-21T14:24:14;9.70;99.90
51557;DHT22;38766;53.194;5.532;2023-11-21T14:26:44;9.70;99.90
51557;DHT22;38766;53.194;5.532;2023-11-21T14:29:12;9.60;99.90
51557;DHT22;38766;53.194;5.532;2023-11-21T14:31:40;9.70;99.90
51557;DHT22;38766;53.194;5.532;2023-11-21T14:34:07;9.60;99.90
51557;DHT22;38766;53.194;5.532;2023-11-21T14:36:34;9.60;99.90
51557;DHT22;38766;53.194;5.532;2023-11-21T14:39:00;9.60;99.90
51557;DHT22;38766;53.194;5.532;2023-11-21T14:41:25;9.50;99.90
51557;DHT22;38766;53.194;5.532;2023-11-21T14:43:53;9.50;99.90
51557;DHT22;38766;53.194;5.532;2023-11-21T14:46:19;9.40;99.90
51557;DHT22;38766;53.194;5.532;2023-11-21T14:48:45;9.40;99.90
51557;DHT22;38766;53.194;5.532;2023-11-21T14:51:27;9.40;99.90
51557;DHT22;38766;53.194;5.532;2023-11-21T14:53:58;9.30;99.90
51557;DHT22;38766;53.194;5.532;2023-11-21T14:56:32;9.30;99.90
51557;DHT22;38766;53.194;5.532;2023-11-21T14:59:02;9.30;99.90
51557;DHT22;38766;53.194;5.532;2023-11-21T15:01:38;9.20;99.90
51557;DHT22;38766;53.194;5.532;2023-11-21T15:04:20;9.20;99.90
51557;DHT22;38766;53.194;5.532;2023-11-21T15:06:57;9.20;99.90
51557;DHT22;38766;53.194;5.532;2023-11-21T15:09:24;9.10;99.90
51557;DHT22;38766;53.194;5.532;2023-11-21T15:12:02;9.10;99.90
51557;DHT22;38766;53.194;5.532;2023-11-21T15:14:50;9.10;99.90
51557;DHT22;38766;53.194;5.532;2023-11-21T15:17:22;9.10;99.90
51557;DHT22;38766;53.194;5.532;2023-11-21T15:19:50;9.00;99.90
51557;DHT22;38766;53.194;5.532;2023-11-21T15:22:16;8.90;99.90
51557;DHT22;38766;53.194;5.532;2023-11-21T15:24:42;8.80;99.90
51557;DHT22;38766;53.194;5.532;2023-11-21T15:27:11;8.80;99.90
51557;DHT22;38766;53.194;5.532;2023-11-21T15:29:40;8.80;99.90
51557;DHT22;38766;53.194;5.532;2023-11-21T15:32:09;8.80;99.90
51557;DHT22;38766;53.194;5.532;2023-11-21T15:34:36;8.70;99.90
51557;DHT22;38766;53.194;5.532;2023-11-21T15:37:03;8.60;99.90
51557;DHT22;38766;53.194;5.532;2023-11-21T15:39:29;8.60;99.90
51557;DHT22;38766;53.194;5.532;2023-11-21T15:41:56;8.60;99.90
51557;DHT22;38766;53.194;5.532;2023-11-21T15:44:23;8.60;99.90
51557;DHT22;38766;53.194;5.532;2023-11-21T15:46:50;8.40;99.90
51557;DHT22;38766;53.194;5.532;2023-11-21T15:49:17;8.40;99.90
51557;DHT22;38766;53.194;5.532;2023-11-21T15:51:46;8.40;99.90